createdAt,value
2019-03-08T00:01:00.127Z,4.60
2019-03-08T00:03:31.904Z,6.60
2019-03-08T00:06:03.602Z,7.00
2019-03-08T00:08:35.349Z,3.73
2019-03-08T00:11:07.225Z,3.50
2019-03-08T00:13:38.923Z,3.90
2019-03-08T00:16:10.528Z,2.80
2019-03-08T00:18:42.305Z,4.50
2019-03-08T00:21:14.181Z,3.60
2019-03-08T00:23:46.103Z,3.17
2019-03-08T00:26:17.693Z,2.87
2019-03-08T00:28:49.384Z,2.57
2019-03-08T00:31:20.978Z,2.63
2019-03-08T00:33:53.524Z,2.70
2019-03-08T00:36:25.102Z,3.03
2019-03-08T00:38:56.699Z,2.60
2019-03-08T00:41:28.298Z,2.27
2019-03-08T00:43:59.917Z,3.47
2019-03-08T00:46:31.789Z,2.83
2019-03-08T00:49:03.463Z,2.80
2019-03-08T00:51:35.057Z,4.00
2019-03-08T00:54:06.657Z,2.53
2019-03-08T00:56:39.690Z,3.60
2019-03-08T00:59:11.507Z,2.60
2019-03-08T01:01:43.254Z,2.60
2019-03-08T01:04:14.845Z,2.33
2019-03-08T01:06:46.512Z,2.73
2019-03-08T01:09:18.092Z,2.53
2019-03-08T01:11:49.663Z,3.07
2019-03-08T01:14:21.306Z,2.60
2019-03-08T01:16:52.943Z,2.50
2019-03-08T01:19:24.553Z,3.33
2019-03-08T01:21:56.489Z,5.17
2019-03-08T01:24:28.078Z,4.00
2019-03-08T01:26:59.662Z,5.73
2019-03-08T01:29:31.295Z,3.80
2019-03-08T01:32:02.876Z,3.63
2019-03-08T01:34:34.478Z,2.53
2019-03-08T01:37:06.145Z,2.23
2019-03-08T01:39:37.770Z,2.37
2019-03-08T01:42:09.363Z,2.47
2019-03-08T01:44:41.028Z,3.07
2019-03-08T01:47:12.973Z,2.43
2019-03-08T01:49:44.586Z,2.57
2019-03-08T01:52:16.295Z,3.77
2019-03-08T01:54:47.915Z,2.73
2019-03-08T01:57:19.771Z,2.23
2019-03-08T01:59:51.485Z,2.40
2019-03-08T02:02:23.149Z,2.47
2019-03-08T02:04:54.749Z,2.67
2019-03-08T02:07:26.346Z,2.30
2019-03-08T02:09:58.105Z,3.27
2019-03-08T02:12:29.757Z,2.53
2019-03-08T02:15:01.530Z,2.33
2019-03-08T02:17:33.401Z,3.10
2019-03-08T02:20:05.485Z,3.10
2019-03-08T02:22:37.083Z,2.03
2019-03-08T02:25:08.690Z,2.00
2019-03-08T02:27:40.426Z,2.20
2019-03-08T02:30:14.321Z,2.43
2019-03-08T02:32:46.371Z,3.03
2019-03-08T02:35:18.844Z,3.53
2019-03-08T02:37:50.414Z,2.70
2019-03-08T02:40:38.164Z,2.63
2019-03-08T02:43:11.685Z,2.07
2019-03-08T02:45:43.332Z,2.07
2019-03-08T02:48:15.375Z,2.90
2019-03-08T02:50:47.229Z,1.87
2019-03-08T02:53:19.157Z,2.23
2019-03-08T02:55:50.814Z,2.60
2019-03-08T02:58:23.469Z,1.63
2019-03-08T03:00:55.154Z,2.40
2019-03-08T03:03:26.830Z,5.77
2019-03-08T03:05:58.494Z,7.00
2019-03-08T03:08:31.143Z,4.90
2019-03-08T03:11:02.727Z,3.30
2019-03-08T03:13:34.373Z,3.23
2019-03-08T03:16:06.265Z,5.27
2019-03-08T03:18:37.918Z,2.90
2019-03-08T03:21:09.511Z,2.63
2019-03-08T03:23:41.089Z,2.30
2019-03-08T03:26:12.878Z,2.93
2019-03-08T03:28:44.626Z,3.70
2019-03-08T03:31:16.403Z,5.53
2019-03-08T03:33:48.071Z,6.80
2019-03-08T03:36:19.747Z,7.67
2019-03-08T03:38:51.358Z,8.30
2019-03-08T03:41:23.079Z,5.10
2019-03-08T03:43:54.663Z,4.87
2019-03-08T03:46:26.389Z,4.63
2019-03-08T03:48:58.042Z,2.93
2019-03-08T03:51:29.635Z,3.83
2019-03-08T03:54:01.258Z,2.70
2019-03-08T03:56:32.858Z,1.90
2019-03-08T03:59:04.447Z,1.97
2019-03-08T04:01:39.952Z,2.20
2019-03-08T04:04:11.611Z,1.97
2019-03-08T04:06:43.285Z,2.50
2019-03-08T04:09:15.062Z,2.30
2019-03-08T04:11:46.833Z,2.43
2019-03-08T04:14:18.418Z,2.47
2019-03-08T04:16:49.986Z,1.90
2019-03-08T04:19:21.584Z,1.80
2019-03-08T04:21:53.165Z,1.83
2019-03-08T04:24:24.757Z,2.27
2019-03-08T04:26:56.738Z,3.30
2019-03-08T04:29:28.320Z,5.23
2019-03-08T04:32:00.086Z,4.77
2019-03-08T04:34:31.761Z,4.43
2019-03-08T04:37:03.466Z,3.63
2019-03-08T04:39:35.396Z,2.70
2019-03-08T04:42:07.004Z,3.63
2019-03-08T04:44:38.587Z,3.97
2019-03-08T04:47:10.205Z,3.97
2019-03-08T04:49:41.855Z,4.40
2019-03-08T04:52:13.456Z,3.40
2019-03-08T04:54:45.341Z,2.87
2019-03-08T04:57:17.257Z,4.07
2019-03-08T04:59:49.182Z,5.20
2019-03-08T05:02:20.756Z,3.03
2019-03-08T05:04:53.318Z,4.87
2019-03-08T05:07:24.922Z,3.73
2019-03-08T05:09:56.507Z,3.00
2019-03-08T05:12:28.103Z,3.73
2019-03-08T05:14:59.973Z,3.67
2019-03-08T05:17:31.573Z,5.57
2019-03-08T05:20:04.237Z,3.73
2019-03-08T05:22:35.919Z,5.13
2019-03-08T05:25:07.569Z,5.60
2019-03-08T05:27:39.447Z,3.63
2019-03-08T05:30:11.767Z,3.37
2019-03-08T05:32:43.441Z,3.23
2019-03-08T05:35:16.192Z,3.07
2019-03-08T05:37:47.782Z,4.17
2019-03-08T05:40:19.372Z,8.10
2019-03-08T05:42:50.936Z,7.93
2019-03-08T05:45:22.521Z,7.13
2019-03-08T05:47:54.124Z,11.20
2019-03-08T05:50:26.025Z,8.30
2019-03-08T05:52:57.686Z,11.37
2019-03-08T05:55:29.364Z,13.10
2019-03-08T05:58:00.969Z,10.03
2019-03-08T06:00:35.051Z,13.40
2019-03-08T06:03:06.265Z,7.93
2019-03-08T06:05:37.910Z,4.80
2019-03-08T06:08:09.524Z,5.37
2019-03-08T06:10:41.121Z,6.17
2019-03-08T06:13:13.129Z,7.40
2019-03-08T06:15:44.907Z,7.27
2019-03-08T06:18:17.563Z,9.03
2019-03-08T06:20:49.158Z,3.20
2019-03-08T06:23:20.742Z,3.03
2019-03-08T06:25:52.366Z,2.07
2019-03-08T06:28:24.348Z,2.00
2019-03-08T06:30:56.248Z,2.83
2019-03-08T06:33:27.857Z,2.77
2019-03-08T06:35:59.529Z,3.17
2019-03-08T06:38:31.141Z,2.40
2019-03-08T06:41:02.730Z,2.40
2019-03-08T06:43:34.328Z,2.40
2019-03-08T06:46:06.003Z,2.33
2019-03-08T06:48:37.678Z,1.90
2019-03-08T06:51:09.280Z,1.60
2019-03-08T06:53:40.897Z,1.63
2019-03-08T06:56:12.488Z,2.10
2019-03-08T06:58:55.817Z,2.37
2019-03-08T07:01:32.145Z,2.60
2019-03-08T07:04:03.765Z,2.27
2019-03-08T07:06:35.669Z,1.40
2019-03-08T07:09:08.044Z,2.00
2019-03-08T07:11:40.209Z,2.50
2019-03-08T07:14:12.369Z,2.50
2019-03-08T07:16:44.244Z,2.27
2019-03-08T07:19:16.810Z,2.13
2019-03-08T07:22:10.443Z,1.90
2019-03-08T07:25:01.268Z,1.70
2019-03-08T07:27:57.391Z,1.90
2019-03-08T07:30:54.893Z,2.53
2019-03-08T07:33:28.259Z,2.50
2019-03-08T07:36:09.166Z,2.57
2019-03-08T07:39:05.544Z,19.70
2019-03-08T07:41:58.283Z,10.40
2019-03-08T07:44:48.870Z,3.73
2019-03-08T07:47:37.989Z,3.70
2019-03-08T07:50:22.900Z,10.77
2019-03-08T07:53:03.837Z,5.03
2019-03-08T07:55:50.743Z,3.73
2019-03-08T07:58:36.876Z,4.27
2019-03-08T08:01:19.317Z,3.80
2019-03-08T08:04:13.053Z,2.60
2019-03-08T08:06:50.187Z,3.27
2019-03-08T08:09:41.229Z,2.10
2019-03-08T08:12:36.411Z,1.63
2019-03-08T08:15:27.448Z,2.50
2019-03-08T08:18:05.047Z,4.80
2019-03-08T08:20:55.735Z,2.80
2019-03-08T08:23:37.418Z,1.30
2019-03-08T08:26:24.047Z,2.37
2019-03-08T08:29:14.460Z,0.70
2019-03-08T08:32:24.167Z,1.43
2019-03-08T08:35:05.601Z,1.77
2019-03-08T08:38:06.821Z,1.53
2019-03-08T08:41:00.673Z,1.50
2019-03-08T08:43:42.008Z,1.43
2019-03-08T08:46:32.770Z,2.37
2019-03-08T08:49:21.872Z,1.77
2019-03-08T08:52:11.241Z,1.97
2019-03-08T08:55:04.829Z,0.93
2019-03-08T08:57:57.215Z,1.37
2019-03-08T09:00:52.019Z,2.53
2019-03-08T09:03:39.704Z,2.20
2019-03-08T09:06:35.331Z,2.83
2019-03-08T09:09:29.711Z,1.30
2019-03-08T09:12:16.399Z,16.27
2019-03-08T09:15:04.083Z,12.60
2019-03-08T09:18:13.991Z,27.33
2019-03-08T09:21:03.498Z,11.17
2019-03-08T09:23:42.055Z,3.67
2019-03-08T09:26:40.787Z,13.57
2019-03-08T09:29:29.965Z,4.93
2019-03-08T09:32:20.559Z,2.00
2019-03-08T09:35:14.100Z,1.73
2019-03-08T09:38:07.867Z,2.57
2019-03-08T09:40:51.810Z,2.70
2019-03-08T09:43:37.131Z,2.20
2019-03-08T09:46:30.694Z,1.30
2019-03-08T09:49:20.531Z,2.23
2019-03-08T09:52:11.386Z,2.93
2019-03-08T09:54:55.143Z,1.30
2019-03-08T09:57:33.374Z,1.10
2019-03-08T10:00:24.286Z,1.07
2019-03-08T10:03:05.012Z,1.73
2019-03-08T10:05:56.914Z,3.57
2019-03-08T10:08:56.539Z,1.43
2019-03-08T10:11:52.901Z,3.50
2019-03-08T10:14:33.226Z,1.80
2019-03-08T10:17:23.740Z,2.27
2019-03-08T10:20:11.267Z,4.13
2019-03-08T10:23:05.176Z,4.80
2019-03-08T10:25:58.509Z,2.60
2019-03-08T10:28:49.792Z,2.47
2019-03-08T10:31:26.695Z,6.20
2019-03-08T10:34:15.880Z,2.57
2019-03-08T10:37:01.688Z,2.37
2019-03-08T10:39:41.833Z,1.87
2019-03-08T10:42:29.466Z,1.60
2019-03-08T10:45:20.105Z,1.40
2019-03-08T10:48:09.501Z,1.80
2019-03-08T10:51:01.429Z,0.87
2019-03-08T10:53:45.808Z,1.60
2019-03-08T10:56:28.719Z,1.37
2019-03-08T10:59:34.794Z,1.47
2019-03-08T11:02:43.565Z,2.30
2019-03-08T11:05:44.886Z,1.10
2019-03-08T11:08:34.296Z,1.50
2019-03-08T11:11:18.764Z,1.67
2019-03-08T11:14:01.050Z,1.40
2019-03-08T11:16:43.390Z,1.57
2019-03-08T11:19:53.576Z,1.30
2019-03-08T11:22:52.851Z,1.10
2019-03-08T11:25:44.201Z,1.27
2019-03-08T11:28:34.207Z,1.57
2019-03-08T11:31:24.714Z,1.83
2019-03-08T11:34:25.424Z,4.27
2019-03-08T11:37:14.853Z,2.03
2019-03-08T11:39:53.088Z,1.60
2019-03-08T11:42:46.745Z,2.57
2019-03-08T11:45:43.064Z,3.73
2019-03-08T11:48:25.303Z,2.33
2019-03-08T11:51:14.129Z,2.23
2019-03-08T11:54:13.760Z,2.57
2019-03-08T11:56:59.535Z,1.13
2019-03-08T12:00:00.324Z,1.80
2019-03-08T12:02:49.318Z,1.90
2019-03-08T12:05:38.547Z,1.20
2019-03-08T12:08:27.807Z,1.70
2019-03-08T12:11:29.159Z,9.00
2019-03-08T12:14:19.749Z,2.47
2019-03-08T12:17:10.071Z,1.53
2019-03-08T12:20:09.619Z,1.67
2019-03-08T12:22:58.766Z,1.87
2019-03-08T12:25:42.532Z,3.40
2019-03-08T12:28:31.729Z,1.50
2019-03-08T12:31:38.144Z,1.90
2019-03-08T12:34:27.363Z,1.17
2019-03-08T12:37:07.905Z,1.57
2019-03-08T12:40:01.477Z,2.03
2019-03-08T12:42:51.144Z,3.80
2019-03-08T12:45:35.411Z,2.23
2019-03-08T12:48:24.356Z,2.60
2019-03-08T12:51:04.667Z,3.40
2019-03-08T12:54:07.373Z,3.23
2019-03-08T12:57:03.767Z,2.57
2019-03-08T12:59:45.217Z,5.37
2019-03-08T13:02:42.044Z,3.20
2019-03-08T13:05:35.341Z,6.23
2019-03-08T13:08:42.100Z,5.43
2019-03-08T13:11:13.943Z,4.40
2019-03-08T13:13:45.538Z,2.73
2019-03-08T13:16:17.126Z,1.93
2019-03-08T13:18:48.702Z,2.10
2019-03-08T13:21:20.297Z,1.50
2019-03-08T13:23:52.881Z,2.57
2019-03-08T13:26:25.542Z,2.00
2019-03-08T13:28:57.211Z,1.80
2019-03-08T13:31:28.802Z,2.47
2019-03-08T13:34:00.454Z,1.73
2019-03-08T13:36:32.119Z,2.47
2019-03-08T13:39:05.080Z,5.93
2019-03-08T13:41:38.281Z,7.53
2019-03-08T13:44:09.889Z,6.23
2019-03-08T13:46:41.493Z,24.70
2019-03-08T13:49:13.167Z,11.97
2019-03-08T13:51:44.867Z,4.77
2019-03-08T13:54:16.787Z,7.53
2019-03-08T13:56:48.530Z,7.77
2019-03-08T13:59:20.147Z,8.10
2019-03-08T14:01:51.751Z,6.03
2019-03-08T14:04:23.426Z,16.70
2019-03-08T14:06:55.039Z,14.13
2019-03-08T14:09:26.658Z,7.10
2019-03-08T14:11:58.252Z,5.13
2019-03-08T14:14:30.137Z,8.80
2019-03-08T14:17:01.737Z,4.00
2019-03-08T14:19:33.331Z,5.53
2019-03-08T14:22:05.286Z,7.70
2019-03-08T14:24:36.933Z,6.17
2019-03-08T14:27:08.599Z,5.40
2019-03-08T14:29:40.986Z,7.67
2019-03-08T14:32:21.270Z,5.37
2019-03-08T14:34:53.754Z,10.50
2019-03-08T14:37:24.112Z,3.80
2019-03-08T14:39:55.783Z,4.40
2019-03-08T14:42:45.544Z,3.87
2019-03-08T14:45:24.060Z,11.40
2019-03-08T14:47:57.624Z,5.00
2019-03-08T14:50:31.889Z,5.13
2019-03-08T14:53:02.614Z,10.83
2019-03-08T14:55:34.556Z,8.30
2019-03-08T14:58:06.154Z,2.57
2019-03-08T15:00:38.063Z,4.30
2019-03-08T15:03:09.742Z,5.43
2019-03-08T15:05:41.414Z,13.20
2019-03-08T15:08:13.737Z,2.80
2019-03-08T15:10:47.110Z,6.67
2019-03-08T15:13:20.215Z,6.00
2019-03-08T15:15:52.681Z,5.00
2019-03-08T15:18:29.441Z,6.63
2019-03-08T15:21:00.136Z,6.67
2019-03-08T15:23:32.012Z,8.87
2019-03-08T15:26:03.630Z,5.87
2019-03-08T15:28:36.227Z,8.00
2019-03-08T15:31:09.649Z,6.20
2019-03-08T15:33:44.005Z,7.27
2019-03-08T15:36:16.297Z,4.93
2019-03-08T15:38:48.062Z,6.10
2019-03-08T15:41:25.028Z,4.07
2019-03-08T15:43:57.556Z,3.37
2019-03-08T15:46:29.523Z,4.67
2019-03-08T15:49:01.346Z,6.00
2019-03-08T15:51:33.179Z,4.57
2019-03-08T15:54:05.048Z,3.60
2019-03-08T15:56:37.252Z,4.27
2019-03-08T15:59:12.565Z,3.37
2019-03-08T16:01:44.249Z,5.20
2019-03-08T16:04:16.233Z,3.90
2019-03-08T16:06:48.035Z,4.37
2019-03-08T16:09:19.747Z,3.60
2019-03-08T16:11:51.401Z,2.83
2019-03-08T16:14:23.327Z,2.97
2019-03-08T16:16:55.237Z,2.37
2019-03-08T16:19:27.019Z,3.07
2019-03-08T16:21:58.619Z,4.63
2019-03-08T16:24:31.087Z,3.73
2019-03-08T16:27:03.902Z,4.80
2019-03-08T16:29:35.969Z,6.70
2019-03-08T16:32:26.694Z,4.53
2019-03-08T16:34:58.824Z,5.43
2019-03-08T16:38:01.310Z,3.57
2019-03-08T16:40:50.476Z,3.53
2019-03-08T16:43:45.783Z,3.47
2019-03-08T16:46:26.609Z,6.83
2019-03-08T16:49:03.542Z,4.07
2019-03-08T16:52:09.334Z,2.70
2019-03-08T16:54:55.093Z,4.87
2019-03-08T16:57:44.507Z,7.23
2019-03-08T17:00:41.203Z,12.87
2019-03-08T17:03:22.843Z,14.60
2019-03-08T17:06:12.052Z,10.33
2019-03-08T17:08:53.338Z,12.67
2019-03-08T17:11:46.999Z,13.60
2019-03-08T17:14:34.478Z,8.13
2019-03-08T17:17:16.122Z,8.00
2019-03-08T17:19:59.444Z,8.90
2019-03-08T17:22:56.408Z,5.67
2019-03-08T17:25:36.491Z,8.93
2019-03-08T17:28:25.686Z,14.57
2019-03-08T17:31:34.096Z,17.33
2019-03-08T17:34:23.440Z,9.87
2019-03-08T17:37:17.097Z,15.00
2019-03-08T17:40:10.357Z,5.70
2019-03-08T17:43:00.522Z,7.10
2019-03-08T17:45:51.616Z,7.80
2019-03-08T17:48:33.262Z,8.00
2019-03-08T17:51:24.281Z,15.03
2019-03-08T17:54:26.923Z,11.93
2019-03-08T17:57:16.057Z,8.70
2019-03-08T18:00:15.791Z,11.03
2019-03-08T18:03:09.498Z,9.73
2019-03-08T18:05:58.484Z,7.80
2019-03-08T18:08:52.062Z,5.77
2019-03-08T18:11:40.916Z,5.80
2019-03-08T18:14:49.780Z,5.63
2019-03-08T18:17:40.581Z,8.97
2019-03-08T18:20:32.601Z,5.97
2019-03-08T18:23:23.597Z,6.93
2019-03-08T18:26:13.612Z,8.57
2019-03-08T18:29:10.082Z,7.97
2019-03-08T18:32:06.858Z,8.90
2019-03-08T18:34:59.565Z,15.63
2019-03-08T18:37:41.937Z,10.47
2019-03-08T18:40:35.595Z,8.10
2019-03-08T18:43:35.370Z,7.20
2019-03-08T18:46:15.893Z,8.07
2019-03-08T18:49:06.481Z,8.20
2019-03-08T18:52:00.813Z,8.10
2019-03-08T18:54:55.306Z,18.43
2019-03-08T18:57:44.594Z,10.03
2019-03-08T19:00:41.294Z,9.60
2019-03-08T19:03:24.445Z,10.90
2019-03-08T19:06:03.735Z,9.73
2019-03-08T19:08:52.929Z,8.37
2019-03-08T19:11:43.858Z,8.07
2019-03-08T19:14:36.669Z,10.20
2019-03-08T19:17:23.903Z,11.40
2019-03-08T19:20:22.411Z,12.47
2019-03-08T19:23:16.292Z,12.27
2019-03-08T19:26:13.129Z,12.43
2019-03-08T19:29:07.166Z,11.43
2019-03-08T19:31:47.810Z,8.80
2019-03-08T19:34:39.131Z,10.97
2019-03-08T19:37:35.763Z,9.07
2019-03-08T19:40:14.108Z,11.70
2019-03-08T19:43:04.709Z,12.07
2019-03-08T19:46:01.340Z,11.93
2019-03-08T19:48:43.954Z,13.50
2019-03-08T19:51:33.137Z,12.93
2019-03-08T19:54:21.543Z,13.13
2019-03-08T19:57:30.933Z,17.20
2019-03-08T20:00:20.965Z,74.33
2019-03-08T20:03:09.863Z,25.43
2019-03-08T20:05:49.622Z,32.70
2019-03-08T20:08:49.207Z,56.37
2019-03-08T20:11:58.163Z,71.70
2019-03-08T20:14:46.689Z,51.27
2019-03-08T20:17:43.061Z,38.57
2019-03-08T20:20:32.794Z,43.27
2019-03-08T20:23:33.704Z,46.67
2019-03-08T20:26:24.509Z,48.80
2019-03-08T20:29:19.392Z,43.47
2019-03-08T20:32:05.466Z,39.00
2019-03-08T20:34:54.540Z,26.63
2019-03-08T20:37:33.286Z,23.57
2019-03-08T20:40:23.061Z,22.33
2019-03-08T20:43:20.317Z,21.07
2019-03-08T20:46:05.747Z,19.30
2019-03-08T20:48:37.427Z,17.63
2019-03-08T20:51:09.095Z,16.27
2019-03-08T20:53:44.226Z,18.30
2019-03-08T20:56:16.206Z,18.97
2019-03-08T20:58:47.921Z,19.73
2019-03-08T21:01:19.801Z,27.47
2019-03-08T21:03:51.480Z,20.90
2019-03-08T21:06:23.192Z,20.43
2019-03-08T21:08:55.932Z,28.30
2019-03-08T21:11:30.467Z,28.60
2019-03-08T21:14:02.735Z,28.83
2019-03-08T21:16:34.421Z,24.50
2019-03-08T21:19:06.027Z,22.70
2019-03-08T21:21:37.715Z,26.63
2019-03-08T21:24:09.584Z,29.33
2019-03-08T21:26:44.300Z,39.23
2019-03-08T21:29:16.060Z,39.60
2019-03-08T21:31:47.848Z,28.13
2019-03-08T21:34:19.542Z,22.60
2019-03-08T21:36:51.243Z,26.73
2019-03-08T21:39:27.159Z,80.67
2019-03-08T21:41:58.858Z,34.17
2019-03-08T21:44:30.565Z,117.77
2019-03-08T21:47:02.207Z,75.20
2019-03-08T21:49:33.879Z,48.80
2019-03-08T21:52:05.543Z,21.97
2019-03-08T21:54:37.231Z,19.77
2019-03-08T21:57:09.005Z,17.13
2019-03-08T21:59:40.673Z,18.53
2019-03-08T22:02:12.353Z,11.13
2019-03-08T22:04:47.688Z,12.30
2019-03-08T22:07:19.460Z,14.30
2019-03-08T22:10:10.017Z,11.50
2019-03-08T22:12:41.695Z,8.73
2019-03-08T22:15:13.900Z,8.53
2019-03-08T22:17:45.564Z,6.23
2019-03-08T22:20:17.149Z,6.40
2019-03-08T22:22:49.857Z,6.37
2019-03-08T22:25:22.546Z,5.43
2019-03-08T22:27:54.245Z,4.83
2019-03-08T22:30:25.856Z,4.93
2019-03-08T22:32:57.464Z,4.87
2019-03-08T22:35:29.087Z,5.73
2019-03-08T22:38:00.693Z,5.40
2019-03-08T22:40:32.367Z,4.60
2019-03-08T22:43:03.982Z,5.47
2019-03-08T22:45:35.573Z,4.17
2019-03-08T22:48:08.015Z,4.77
2019-03-08T22:50:40.684Z,4.40
2019-03-08T22:53:12.274Z,4.87
2019-03-08T22:55:45.428Z,5.20
2019-03-08T22:58:17.060Z,5.37
2019-03-08T23:01:12.930Z,5.60
2019-03-08T23:03:46.190Z,4.90
2019-03-08T23:06:18.124Z,4.33
2019-03-08T23:08:49.935Z,4.87
2019-03-08T23:11:21.531Z,4.80
2019-03-08T23:13:53.124Z,6.20
2019-03-08T23:16:24.745Z,5.97
2019-03-08T23:18:56.416Z,6.63
2019-03-08T23:21:28.022Z,7.43
2019-03-08T23:23:59.622Z,12.63
2019-03-08T23:26:35.278Z,14.00
2019-03-08T23:29:13.872Z,9.97
2019-03-08T23:32:02.011Z,8.63
2019-03-08T23:34:33.967Z,7.10
2019-03-08T23:37:05.568Z,6.47
2019-03-08T23:39:37.227Z,7.70
2019-03-08T23:42:08.857Z,8.17
2019-03-08T23:44:41.506Z,9.50
2019-03-08T23:47:13.195Z,8.23
2019-03-08T23:49:45.040Z,8.23
2019-03-08T23:52:17.006Z,6.93
2019-03-08T23:54:48.597Z,7.70
2019-03-08T23:57:20.264Z,9.83
2019-03-08T23:59:51.938Z,11.17
